sensor_id;sensor_type;location;lat;lon;timestamp;P1;durP1;ratioP1;P2;durP2;ratioP2
20042;SDS011;10182;52.896;6.496;2023-12-14T00:00:05;9.87;;;7.90;;
20042;SDS011;10182;52.896;6.496;2023-12-14T00:05:10;9.07;;;8.17;;
20042;SDS011;10182;52.896;6.496;2023-12-14T00:10:11;11.60;;;8.60;;
20042;SDS011;10182;52.896;6.496;2023-12-14T00:15:13;9.83;;;8.80;;
20042;SDS011;10182;52.896;6.496;2023-12-14T00:20:16;9.80;;;8.80;;
20042;SDS011;10182;52.896;6.496;2023-12-14T00:25:18;10.80;;;9.10;;
20042;SDS011;10182;52.896;6.496;2023-12-14T00:30:20;10.03;;;9.00;;
20042;SDS011;10182;52.896;6.496;2023-12-14T00:35:23;13.63;;;8.83;;
20042;SDS011;10182;52.896;6.496;2023-12-14T00:40:24;10.40;;;8.97;;
20042;SDS011;10182;52.896;6.496;2023-12-14T00:45:26;12.27;;;9.40;;
20042;SDS011;10182;52.896;6.496;2023-12-14T00:50:29;11.10;;;9.03;;
20042;SDS011;10182;52.896;6.496;2023-12-14T00:55:30;13.23;;;9.80;;
20042;SDS011;10182;52.896;6.496;2023-12-14T01:00:32;10.67;;;9.17;;
20042;SDS011;10182;52.896;6.496;2023-12-14T01:05:35;13.33;;;9.17;;
20042;SDS011;10182;52.896;6.496;2023-12-14T01:10:37;11.00;;;8.97;;
20042;SDS011;10182;52.896;6.496;2023-12-14T01:15:39;9.43;;;7.73;;
20042;SDS011;10182;52.896;6.496;2023-12-14T01:20:42;11.47;;;8.93;;
20042;SDS011;10182;52.896;6.496;2023-12-14T01:25:43;8.77;;;7.50;;
20042;SDS011;10182;52.896;6.496;2023-12-14T01:30:45;9.63;;;7.93;;
20042;SDS011;10182;52.896;6.496;2023-12-14T01:35:48;9.73;;;8.20;;
20042;SDS011;10182;52.896;6.496;2023-12-14T01:40:50;10.17;;;8.17;;
20042;SDS011;10182;52.896;6.496;2023-12-14T01:45:51;9.83;;;8.27;;
20042;SDS011;10182;52.896;6.496;2023-12-14T01:50:54;9.13;;;8.20;;
20042;SDS011;10182;52.896;6.496;2023-12-14T01:55:56;9.00;;;7.43;;
20042;SDS011;10182;52.896;6.496;2023-12-14T02:00:58;10.23;;;7.60;;
20042;SDS011;10182;52.896;6.496;2023-12-14T02:06:09;10.70;;;7.80;;
20042;SDS011;10182;52.896;6.496;2023-12-14T02:11:11;9.20;;;7.87;;
20042;SDS011;10182;52.896;6.496;2023-12-14T02:16:13;9.33;;;7.80;;
20042;SDS011;10182;52.896;6.496;2023-12-14T02:21:16;8.30;;;7.00;;
20042;SDS011;10182;52.896;6.496;2023-12-14T02:26:20;9.10;;;7.60;;
20042;SDS011;10182;52.896;6.496;2023-12-14T02:31:22;8.80;;;7.50;;
20042;SDS011;10182;52.896;6.496;2023-12-14T02:36:24;10.03;;;7.87;;
20042;SDS011;10182;52.896;6.496;2023-12-14T02:41:27;9.13;;;7.33;;
20042;SDS011;10182;52.896;6.496;2023-12-14T02:46:29;11.00;;;8.27;;
20042;SDS011;10182;52.896;6.496;2023-12-14T02:51:30;9.53;;;7.27;;
20042;SDS011;10182;52.896;6.496;2023-12-14T02:56:33;8.83;;;7.13;;
20042;SDS011;10182;52.896;6.496;2023-12-14T03:01:35;10.13;;;7.03;;
20042;SDS011;10182;52.896;6.496;2023-12-14T03:06:37;11.77;;;7.90;;
20042;SDS011;10182;52.896;6.496;2023-12-14T03:11:40;10.40;;;7.77;;
20042;SDS011;10182;52.896;6.496;2023-12-14T03:16:41;9.83;;;7.63;;
20042;SDS011;10182;52.896;6.496;2023-12-14T03:21:43;10.03;;;7.07;;
20042;SDS011;10182;52.896;6.496;2023-12-14T03:26:46;13.13;;;7.80;;
20042;SDS011;10182;52.896;6.496;2023-12-14T03:31:48;11.03;;;8.50;;
20042;SDS011;10182;52.896;6.496;2023-12-14T03:36:49;13.90;;;8.53;;
20042;SDS011;10182;52.896;6.496;2023-12-14T03:41:52;13.10;;;9.27;;
20042;SDS011;10182;52.896;6.496;2023-12-14T03:46:54;12.70;;;9.03;;
20042;SDS011;10182;52.896;6.496;2023-12-14T03:51:59;16.93;;;10.90;;
20042;SDS011;10182;52.896;6.496;2023-12-14T03:57:02;14.80;;;9.90;;
20042;SDS011;10182;52.896;6.496;2023-12-14T04:02:04;17.90;;;9.93;;
20042;SDS011;10182;52.896;6.496;2023-12-14T04:07:05;16.13;;;10.83;;
20042;SDS011;10182;52.896;6.496;2023-12-14T04:12:08;16.33;;;10.83;;
20042;SDS011;10182;52.896;6.496;2023-12-14T04:17:10;14.60;;;9.80;;
20042;SDS011;10182;52.896;6.496;2023-12-14T04:22:12;15.03;;;9.97;;
20042;SDS011;10182;52.896;6.496;2023-12-14T04:27:15;12.93;;;9.53;;
20042;SDS011;10182;52.896;6.496;2023-12-14T04:32:16;13.37;;;9.50;;
20042;SDS011;10182;52.896;6.496;2023-12-14T04:37:18;14.57;;;9.77;;
20042;SDS011;10182;52.896;6.496;2023-12-14T04:42:21;15.73;;;9.57;;
20042;SDS011;10182;52.896;6.496;2023-12-14T04:47:23;16.20;;;10.47;;
20042;SDS011;10182;52.896;6.496;2023-12-14T04:52:24;12.80;;;9.07;;
20042;SDS011;10182;52.896;6.496;2023-12-14T04:57:27;13.33;;;8.67;;
20042;SDS011;10182;52.896;6.496;2023-12-14T05:02:31;15.00;;;9.83;;
20042;SDS011;10182;52.896;6.496;2023-12-14T05:07:33;17.77;;;9.57;;
20042;SDS011;10182;52.896;6.496;2023-12-14T05:12:36;19.13;;;9.30;;
20042;SDS011;10182;52.896;6.496;2023-12-14T05:17:38;18.53;;;9.37;;
20042;SDS011;10182;52.896;6.496;2023-12-14T05:22:42;14.60;;;9.47;;
20042;SDS011;10182;52.896;6.496;2023-12-14T05:27:45;13.73;;;8.87;;
20042;SDS011;10182;52.896;6.496;2023-12-14T05:32:47;14.50;;;8.60;;
20042;SDS011;10182;52.896;6.496;2023-12-14T05:37:48;14.37;;;9.17;;
20042;SDS011;10182;52.896;6.496;2023-12-14T05:42:51;13.57;;;9.07;;
20042;SDS011;10182;52.896;6.496;2023-12-14T05:47:53;13.23;;;8.63;;
20042;SDS011;10182;52.896;6.496;2023-12-14T05:52:55;13.33;;;8.70;;
20042;SDS011;10182;52.896;6.496;2023-12-14T05:57:58;12.97;;;8.90;;
20042;SDS011;10182;52.896;6.496;2023-12-14T06:02:59;12.60;;;8.67;;
20042;SDS011;10182;52.896;6.496;2023-12-14T06:08:01;11.93;;;8.67;;
20042;SDS011;10182;52.896;6.496;2023-12-14T06:13:04;16.93;;;9.63;;
20042;SDS011;10182;52.896;6.496;2023-12-14T06:18:06;15.40;;;9.10;;
20042;SDS011;10182;52.896;6.496;2023-12-14T06:23:07;13.40;;;9.30;;
20042;SDS011;10182;52.896;6.496;2023-12-14T06:28:10;11.93;;;9.07;;
20042;SDS011;10182;52.896;6.496;2023-12-14T06:33:12;13.80;;;9.53;;
20042;SDS011;10182;52.896;6.496;2023-12-14T06:38:14;14.30;;;9.47;;
20042;SDS011;10182;52.896;6.496;2023-12-14T06:43:17;11.37;;;8.27;;
20042;SDS011;10182;52.896;6.496;2023-12-14T06:48:18;10.73;;;8.47;;
20042;SDS011;10182;52.896;6.496;2023-12-14T06:53:21;11.53;;;7.87;;
20042;SDS011;10182;52.896;6.496;2023-12-14T06:58:24;10.40;;;7.93;;
20042;SDS011;10182;52.896;6.496;2023-12-14T07:03:25;12.60;;;8.93;;
20042;SDS011;10182;52.896;6.496;2023-12-14T07:08:27;11.00;;;8.73;;
20042;SDS011;10182;52.896;6.496;2023-12-14T07:13:30;9.07;;;7.63;;
20042;SDS011;10182;52.896;6.496;2023-12-14T07:18:32;12.10;;;9.00;;
20042;SDS011;10182;52.896;6.496;2023-12-14T07:23:33;13.83;;;10.03;;
20042;SDS011;10182;52.896;6.496;2023-12-14T07:28:37;13.47;;;9.97;;
20042;SDS011;10182;52.896;6.496;2023-12-14T07:33:39;14.83;;;10.60;;
20042;SDS011;10182;52.896;6.496;2023-12-14T07:38:41;18.70;;;9.93;;
20042;SDS011;10182;52.896;6.496;2023-12-14T07:43:46;13.27;;;10.47;;
20042;SDS011;10182;52.896;6.496;2023-12-14T07:48:48;16.20;;;10.77;;
20042;SDS011;10182;52.896;6.496;2023-12-14T07:53:50;20.20;;;12.63;;
20042;SDS011;10182;52.896;6.496;2023-12-14T07:58:53;16.00;;;10.63;;
20042;SDS011;10182;52.896;6.496;2023-12-14T08:03:55;15.50;;;11.03;;
20042;SDS011;10182;52.896;6.496;2023-12-14T08:08:57;15.60;;;11.63;;
20042;SDS011;10182;52.896;6.496;2023-12-14T08:14:00;16.47;;;10.80;;
20042;SDS011;10182;52.896;6.496;2023-12-14T08:19:03;24.67;;;11.90;;
20042;SDS011;10182;52.896;6.496;2023-12-14T08:24:04;15.37;;;11.63;;
20042;SDS011;10182;52.896;6.496;2023-12-14T08:29:08;18.97;;;11.63;;
20042;SDS011;10182;52.896;6.496;2023-12-14T08:34:10;17.50;;;12.50;;
20042;SDS011;10182;52.896;6.496;2023-12-14T08:39:12;19.43;;;12.83;;
20042;SDS011;10182;52.896;6.496;2023-12-14T08:44:15;20.40;;;13.03;;
20042;SDS011;10182;52.896;6.496;2023-12-14T08:49:16;20.97;;;12.83;;
20042;SDS011;10182;52.896;6.496;2023-12-14T08:54:18;21.43;;;12.10;;
20042;SDS011;10182;52.896;6.496;2023-12-14T08:59:21;18.50;;;12.60;;
20042;SDS011;10182;52.896;6.496;2023-12-14T09:04:23;22.37;;;12.70;;
20042;SDS011;10182;52.896;6.496;2023-12-14T09:09:24;20.37;;;12.93;;
20042;SDS011;10182;52.896;6.496;2023-12-14T09:14:27;22.27;;;12.87;;
20042;SDS011;10182;52.896;6.496;2023-12-14T09:19:30;23.53;;;13.40;;
20042;SDS011;10182;52.896;6.496;2023-12-14T09:24:31;26.70;;;13.43;;
20042;SDS011;10182;52.896;6.496;2023-12-14T09:29:34;23.90;;;14.77;;
20042;SDS011;10182;52.896;6.496;2023-12-14T09:34:36;24.37;;;14.33;;
20042;SDS011;10182;52.896;6.496;2023-12-14T09:39:38;25.20;;;13.03;;
20042;SDS011;10182;52.896;6.496;2023-12-14T09:44:41;23.03;;;12.93;;
20042;SDS011;10182;52.896;6.496;2023-12-14T09:49:44;19.57;;;12.10;;
20042;SDS011;10182;52.896;6.496;2023-12-14T09:54:46;25.53;;;14.23;;
20042;SDS011;10182;52.896;6.496;2023-12-14T09:59:52;26.10;;;13.27;;
20042;SDS011;10182;52.896;6.496;2023-12-14T10:04:54;26.27;;;12.33;;
20042;SDS011;10182;52.896;6.496;2023-12-14T10:09:58;25.73;;;12.00;;
20042;SDS011;10182;52.896;6.496;2023-12-14T10:15:12;21.80;;;12.23;;
20042;SDS011;10182;52.896;6.496;2023-12-14T10:20:14;19.87;;;12.90;;
20042;SDS011;10182;52.896;6.496;2023-12-14T10:25:22;22.47;;;13.07;;
20042;SDS011;10182;52.896;6.496;2023-12-14T10:30:25;20.77;;;11.97;;
20042;SDS011;10182;52.896;6.496;2023-12-14T10:35:27;21.37;;;13.03;;
20042;SDS011;10182;52.896;6.496;2023-12-14T10:40:29;18.40;;;12.90;;
20042;SDS011;10182;52.896;6.496;2023-12-14T10:45:33;25.03;;;13.43;;
20042;SDS011;10182;52.896;6.496;2023-12-14T10:50:35;22.57;;;12.37;;
20042;SDS011;10182;52.896;6.496;2023-12-14T10:55:38;23.13;;;13.57;;
20042;SDS011;10182;52.896;6.496;2023-12-14T11:00:47;26.73;;;12.80;;
20042;SDS011;10182;52.896;6.496;2023-12-14T11:06:01;24.57;;;13.77;;
20042;SDS011;10182;52.896;6.496;2023-12-14T11:11:04;21.03;;;12.27;;
20042;SDS011;10182;52.896;6.496;2023-12-14T11:16:12;22.80;;;13.47;;
20042;SDS011;10182;52.896;6.496;2023-12-14T11:21:17;22.33;;;12.50;;
20042;SDS011;10182;52.896;6.496;2023-12-14T11:26:21;21.53;;;12.93;;
20042;SDS011;10182;52.896;6.496;2023-12-14T11:31:30;22.53;;;12.67;;
20042;SDS011;10182;52.896;6.496;2023-12-14T11:36:31;19.00;;;12.73;;
20042;SDS011;10182;52.896;6.496;2023-12-14T11:41:33;17.10;;;11.13;;
20042;SDS011;10182;52.896;6.496;2023-12-14T11:46:37;21.07;;;13.20;;
20042;SDS011;10182;52.896;6.496;2023-12-14T11:51:40;16.57;;;11.23;;
20042;SDS011;10182;52.896;6.496;2023-12-14T11:56:45;16.90;;;10.93;;
20042;SDS011;10182;52.896;6.496;2023-12-14T12:01:55;16.23;;;11.13;;
20042;SDS011;10182;52.896;6.496;2023-12-14T12:07:01;15.63;;;10.73;;
20042;SDS011;10182;52.896;6.496;2023-12-14T12:12:08;17.33;;;11.03;;
20042;SDS011;10182;52.896;6.496;2023-12-14T12:17:12;14.97;;;10.60;;
20042;SDS011;10182;52.896;6.496;2023-12-14T12:22:14;17.93;;;10.70;;
20042;SDS011;10182;52.896;6.496;2023-12-14T12:27:16;16.10;;;10.73;;
20042;SDS011;10182;52.896;6.496;2023-12-14T12:32:19;17.93;;;12.47;;
20042;SDS011;10182;52.896;6.496;2023-12-14T12:37:20;14.40;;;10.73;;
20042;SDS011;10182;52.896;6.496;2023-12-14T12:42:23;16.10;;;11.43;;
20042;SDS011;10182;52.896;6.496;2023-12-14T12:47:27;18.03;;;11.67;;
20042;SDS011;10182;52.896;6.496;2023-12-14T12:52:28;15.07;;;11.30;;
20042;SDS011;10182;52.896;6.496;2023-12-14T12:57:30;15.63;;;10.60;;
20042;SDS011;10182;52.896;6.496;2023-12-14T13:02:33;20.03;;;11.80;;
20042;SDS011;10182;52.896;6.496;2023-12-14T13:07:35;17.57;;;11.83;;
20042;SDS011;10182;52.896;6.496;2023-12-14T13:12:37;16.37;;;12.20;;
20042;SDS011;10182;52.896;6.496;2023-12-14T13:17:40;15.60;;;11.13;;
20042;SDS011;10182;52.896;6.496;2023-12-14T13:22:42;17.10;;;13.00;;
20042;SDS011;10182;52.896;6.496;2023-12-14T13:27:43;18.23;;;12.33;;
20042;SDS011;10182;52.896;6.496;2023-12-14T13:32:46;18.77;;;13.13;;
20042;SDS011;10182;52.896;6.496;2023-12-14T13:37:48;15.23;;;11.37;;
20042;SDS011;10182;52.896;6.496;2023-12-14T13:42:50;17.83;;;12.07;;
20042;SDS011;10182;52.896;6.496;2023-12-14T13:47:53;14.93;;;12.10;;
20042;SDS011;10182;52.896;6.496;2023-12-14T13:52:54;18.67;;;12.37;;
20042;SDS011;10182;52.896;6.496;2023-12-14T13:57:56;19.10;;;15.17;;
20042;SDS011;10182;52.896;6.496;2023-12-14T14:03:01;17.67;;;14.70;;
20042;SDS011;10182;52.896;6.496;2023-12-14T14:08:04;14.60;;;11.87;;
20042;SDS011;10182;52.896;6.496;2023-12-14T14:13:06;16.17;;;12.77;;
20042;SDS011;10182;52.896;6.496;2023-12-14T14:18:09;15.13;;;12.10;;
20042;SDS011;10182;52.896;6.496;2023-12-14T14:23:10;14.33;;;11.23;;
20042;SDS011;10182;52.896;6.496;2023-12-14T14:28:12;15.03;;;12.43;;
20042;SDS011;10182;52.896;6.496;2023-12-14T14:33:15;18.80;;;13.80;;
20042;SDS011;10182;52.896;6.496;2023-12-14T14:38:18;18.57;;;12.67;;
20042;SDS011;10182;52.896;6.496;2023-12-14T14:43:20;18.37;;;13.00;;
20042;SDS011;10182;52.896;6.496;2023-12-14T14:48:24;19.20;;;13.17;;
20042;SDS011;10182;52.896;6.496;2023-12-14T14:53:25;20.27;;;13.50;;
20042;SDS011;10182;52.896;6.496;2023-12-14T14:58:28;18.07;;;13.33;;
20042;SDS011;10182;52.896;6.496;2023-12-14T15:03:31;18.03;;;12.27;;
20042;SDS011;10182;52.896;6.496;2023-12-14T15:08:32;17.93;;;12.67;;
20042;SDS011;10182;52.896;6.496;2023-12-14T15:13:34;20.10;;;14.40;;
20042;SDS011;10182;52.896;6.496;2023-12-14T15:18:37;19.77;;;14.30;;
20042;SDS011;10182;52.896;6.496;2023-12-14T15:23:41;20.87;;;15.70;;
20042;SDS011;10182;52.896;6.496;2023-12-14T15:28:44;20.77;;;16.40;;
20042;SDS011;10182;52.896;6.496;2023-12-14T15:33:47;24.67;;;19.03;;
20042;SDS011;10182;52.896;6.496;2023-12-14T15:38:48;21.77;;;14.27;;
20042;SDS011;10182;52.896;6.496;2023-12-14T15:43:50;21.63;;;14.27;;
20042;SDS011;10182;52.896;6.496;2023-12-14T15:48:53;19.23;;;13.80;;
20042;SDS011;10182;52.896;6.496;2023-12-14T15:53:55;21.80;;;13.17;;
20042;SDS011;10182;52.896;6.496;2023-12-14T15:58:59;21.90;;;12.77;;
20042;SDS011;10182;52.896;6.496;2023-12-14T16:04:02;22.17;;;14.37;;
20042;SDS011;10182;52.896;6.496;2023-12-14T16:09:04;20.57;;;14.13;;
20042;SDS011;10182;52.896;6.496;2023-12-14T16:14:06;17.03;;;13.10;;
20042;SDS011;10182;52.896;6.496;2023-12-14T16:19:09;20.07;;;13.47;;
20042;SDS011;10182;52.896;6.496;2023-12-14T16:24:10;19.37;;;13.30;;
20042;SDS011;10182;52.896;6.496;2023-12-14T16:29:13;22.87;;;16.53;;
20042;SDS011;10182;52.896;6.496;2023-12-14T16:34:16;23.77;;;18.33;;
20042;SDS011;10182;52.896;6.496;2023-12-14T16:39:17;20.57;;;13.70;;
20042;SDS011;10182;52.896;6.496;2023-12-14T16:44:19;24.03;;;13.93;;
20042;SDS011;10182;52.896;6.496;2023-12-14T16:49:22;23.30;;;13.57;;
20042;SDS011;10182;52.896;6.496;2023-12-14T16:54:24;21.60;;;13.40;;
20042;SDS011;10182;52.896;6.496;2023-12-14T16:59:25;20.90;;;14.07;;
20042;SDS011;10182;52.896;6.496;2023-12-14T17:04:28;21.57;;;14.47;;
20042;SDS011;10182;52.896;6.496;2023-12-14T17:09:30;20.60;;;13.57;;
20042;SDS011;10182;52.896;6.496;2023-12-14T17:14:32;19.47;;;12.93;;
20042;SDS011;10182;52.896;6.496;2023-12-14T17:19:35;18.83;;;13.37;;
20042;SDS011;10182;52.896;6.496;2023-12-14T17:24:37;22.60;;;14.47;;
20042;SDS011;10182;52.896;6.496;2023-12-14T17:29:39;27.87;;;23.03;;
20042;SDS011;10182;52.896;6.496;2023-12-14T17:34:42;63.67;;;46.83;;
20042;SDS011;10182;52.896;6.496;2023-12-14T17:39:44;22.90;;;16.50;;
20042;SDS011;10182;52.896;6.496;2023-12-14T17:44:45;23.80;;;14.53;;
20042;SDS011;10182;52.896;6.496;2023-12-14T17:49:48;22.40;;;15.33;;
20042;SDS011;10182;52.896;6.496;2023-12-14T17:54:50;18.57;;;14.43;;
20042;SDS011;10182;52.896;6.496;2023-12-14T17:59:52;21.23;;;14.33;;
20042;SDS011;10182;52.896;6.496;2023-12-14T18:04:55;23.50;;;15.97;;
20042;SDS011;10182;52.896;6.496;2023-12-14T18:09:57;26.63;;;19.20;;
20042;SDS011;10182;52.896;6.496;2023-12-14T18:14:59;25.17;;;15.87;;
20042;SDS011;10182;52.896;6.496;2023-12-14T18:20:02;21.47;;;15.20;;
20042;SDS011;10182;52.896;6.496;2023-12-14T18:25:04;20.23;;;15.03;;
20042;SDS011;10182;52.896;6.496;2023-12-14T18:30:07;19.43;;;14.87;;
20042;SDS011;10182;52.896;6.496;2023-12-14T18:35:11;22.20;;;16.13;;
20042;SDS011;10182;52.896;6.496;2023-12-14T18:40:13;21.00;;;15.13;;
20042;SDS011;10182;52.896;6.496;2023-12-14T18:45:16;21.00;;;14.47;;
20042;SDS011;10182;52.896;6.496;2023-12-14T18:50:19;19.97;;;15.00;;
20042;SDS011;10182;52.896;6.496;2023-12-14T18:55:21;23.13;;;14.93;;
20042;SDS011;10182;52.896;6.496;2023-12-14T19:00:23;22.10;;;14.30;;
20042;SDS011;10182;52.896;6.496;2023-12-14T19:05:26;21.30;;;14.80;;
20042;SDS011;10182;52.896;6.496;2023-12-14T19:10:27;23.07;;;16.27;;
20042;SDS011;10182;52.896;6.496;2023-12-14T19:15:29;22.70;;;15.27;;
20042;SDS011;10182;52.896;6.496;2023-12-14T19:20:32;17.90;;;13.53;;
20042;SDS011;10182;52.896;6.496;2023-12-14T19:25:35;20.67;;;15.00;;
20042;SDS011;10182;52.896;6.496;2023-12-14T19:30:36;19.80;;;15.13;;
20042;SDS011;10182;52.896;6.496;2023-12-14T19:35:39;23.80;;;16.60;;
20042;SDS011;10182;52.896;6.496;2023-12-14T19:40:41;24.03;;;15.70;;
20042;SDS011;10182;52.896;6.496;2023-12-14T19:45:43;26.17;;;16.13;;
20042;SDS011;10182;52.896;6.496;2023-12-14T19:50:46;24.40;;;14.80;;
20042;SDS011;10182;52.896;6.496;2023-12-14T19:55:48;28.33;;;20.13;;
20042;SDS011;10182;52.896;6.496;2023-12-14T20:00:49;26.00;;;19.47;;
20042;SDS011;10182;52.896;6.496;2023-12-14T20:05:52;23.40;;;16.10;;
20042;SDS011;10182;52.896;6.496;2023-12-14T20:10:54;23.23;;;16.73;;
20042;SDS011;10182;52.896;6.496;2023-12-14T20:15:56;23.07;;;16.60;;
20042;SDS011;10182;52.896;6.496;2023-12-14T20:20:59;21.63;;;16.17;;
20042;SDS011;10182;52.896;6.496;2023-12-14T20:26:01;25.87;;;17.53;;
20042;SDS011;10182;52.896;6.496;2023-12-14T20:31:02;23.47;;;16.50;;
20042;SDS011;10182;52.896;6.496;2023-12-14T20:36:06;23.73;;;17.33;;
20042;SDS011;10182;52.896;6.496;2023-12-14T20:41:09;27.00;;;19.40;;
20042;SDS011;10182;52.896;6.496;2023-12-14T20:46:13;26.37;;;18.83;;
20042;SDS011;10182;52.896;6.496;2023-12-14T20:51:16;26.07;;;17.50;;
20042;SDS011;10182;52.896;6.496;2023-12-14T20:56:19;27.10;;;19.17;;
20042;SDS011;10182;52.896;6.496;2023-12-14T21:01:21;25.87;;;17.93;;
20042;SDS011;10182;52.896;6.496;2023-12-14T21:06:24;28.73;;;19.33;;
20042;SDS011;10182;52.896;6.496;2023-12-14T21:11:25;30.67;;;18.90;;
20042;SDS011;10182;52.896;6.496;2023-12-14T21:16:27;29.30;;;19.43;;
20042;SDS011;10182;52.896;6.496;2023-12-14T21:21:30;31.40;;;20.20;;
20042;SDS011;10182;52.896;6.496;2023-12-14T21:26:32;30.27;;;20.27;;
20042;SDS011;10182;52.896;6.496;2023-12-14T21:31:36;32.53;;;19.67;;
20042;SDS011;10182;52.896;6.496;2023-12-14T21:36:39;31.17;;;21.37;;
20042;SDS011;10182;52.896;6.496;2023-12-14T21:41:41;33.20;;;22.57;;
20042;SDS011;10182;52.896;6.496;2023-12-14T21:46:42;29.77;;;19.93;;
20042;SDS011;10182;52.896;6.496;2023-12-14T21:51:45;28.77;;;20.27;;
20042;SDS011;10182;52.896;6.496;2023-12-14T21:56:47;29.53;;;20.27;;
20042;SDS011;10182;52.896;6.496;2023-12-14T22:01:49;31.70;;;20.67;;
20042;SDS011;10182;52.896;6.496;2023-12-14T22:06:52;32.77;;;21.53;;
20042;SDS011;10182;52.896;6.496;2023-12-14T22:11:54;30.37;;;19.97;;
20042;SDS011;10182;52.896;6.496;2023-12-14T22:16:55;34.73;;;22.00;;
20042;SDS011;10182;52.896;6.496;2023-12-14T22:21:58;31.70;;;20.43;;
20042;SDS011;10182;52.896;6.496;2023-12-14T22:27:00;29.57;;;20.27;;
20042;SDS011;10182;52.896;6.496;2023-12-14T22:32:02;29.07;;;20.63;;
20042;SDS011;10182;52.896;6.496;2023-12-14T22:37:06;28.73;;;19.03;;
20042;SDS011;10182;52.896;6.496;2023-12-14T22:42:07;29.20;;;19.27;;
20042;SDS011;10182;52.896;6.496;2023-12-14T22:47:11;33.17;;;19.50;;
20042;SDS011;10182;52.896;6.496;2023-12-14T22:52:14;33.83;;;21.33;;
20042;SDS011;10182;52.896;6.496;2023-12-14T22:57:16;30.97;;;19.93;;
20042;SDS011;10182;52.896;6.496;2023-12-14T23:02:18;31.07;;;20.77;;
20042;SDS011;10182;52.896;6.496;2023-12-14T23:07:22;30.80;;;20.13;;
20042;SDS011;10182;52.896;6.496;2023-12-14T23:12:24;33.57;;;21.70;;
20042;SDS011;10182;52.896;6.496;2023-12-14T23:17:27;31.90;;;21.27;;
20042;SDS011;10182;52.896;6.496;2023-12-14T23:22:31;37.97;;;22.97;;
20042;SDS011;10182;52.896;6.496;2023-12-14T23:27:33;35.03;;;23.93;;
20042;SDS011;10182;52.896;6.496;2023-12-14T23:32:35;32.23;;;23.03;;
20042;SDS011;10182;52.896;6.496;2023-12-14T23:37:38;39.10;;;26.70;;
20042;SDS011;10182;52.896;6.496;2023-12-14T23:42:39;39.27;;;26.00;;
20042;SDS011;10182;52.896;6.496;2023-12-14T23:47:41;41.50;;;27.37;;
20042;SDS011;10182;52.896;6.496;2023-12-14T23:52:44;43.73;;;27.17;;
20042;SDS011;10182;52.896;6.496;2023-12-14T23:57:46;42.97;;;28.20;;
